createdAt,value
2019-04-22T00:00:32.390Z,56.65
2019-04-22T00:01:04.846Z,57.73
2019-04-22T00:01:36.884Z,56.50
2019-04-22T00:02:13.235Z,57.10
2019-04-22T00:02:51.545Z,56.75
2019-04-22T00:03:23.559Z,56.98
2019-04-22T00:04:03.852Z,56.83
2019-04-22T00:04:45.323Z,55.10
2019-04-22T00:05:17.593Z,57.08
2019-04-22T00:06:00.936Z,56.90
2019-04-22T00:06:39.295Z,56.25
2019-04-22T00:07:15.632Z,55.70
2019-04-22T00:08:32.655Z,57.08
2019-04-22T00:09:03.297Z,56.28
2019-04-22T00:09:38.870Z,56.15
2019-04-22T00:10:11.807Z,55.95
2019-04-22T00:10:48.703Z,56.35
2019-04-22T00:11:29.149Z,55.67
2019-04-22T00:12:06.318Z,55.90
2019-04-22T00:12:37.334Z,56.02
2019-04-22T00:13:09.397Z,56.33
2019-04-22T00:13:55.541Z,56.63
2019-04-22T00:14:11.688Z,55.83
2019-04-22T00:14:52.506Z,56.23
2019-04-22T00:15:26.066Z,55.38
2019-04-22T00:16:00.991Z,56.28
2019-04-22T00:16:50.327Z,56.63
2019-04-22T00:17:25.070Z,55.92
2019-04-22T00:18:35.765Z,56.55
2019-04-22T00:19:47.051Z,56.70
2019-04-22T00:20:14.789Z,57.43
2019-04-22T00:20:52.921Z,57.35
2019-04-22T00:21:25.730Z,57.08
2019-04-22T00:22:02.530Z,57.53
2019-04-22T00:22:32.062Z,57.30
2019-04-22T00:23:10.095Z,55.75
2019-04-22T00:23:47.028Z,57.45
2019-04-22T00:24:20.410Z,56.77
2019-04-22T00:24:51.290Z,56.33
2019-04-22T00:26:08.760Z,55.85
2019-04-22T00:26:48.377Z,56.73
2019-04-22T00:27:24.367Z,56.53
2019-04-22T00:28:00.841Z,55.47
2019-04-22T00:28:32.133Z,54.93
2019-04-22T00:29:14.504Z,56.25
2019-04-22T00:30:16.498Z,55.12
2019-04-22T00:30:50.638Z,56.63
2019-04-22T00:31:38.157Z,55.10
2019-04-22T00:32:12.748Z,55.03
2019-04-22T00:33:01.370Z,56.42
2019-04-22T00:33:31.251Z,55.35
2019-04-22T00:34:06.743Z,55.12
2019-04-22T00:34:48.802Z,55.03
2019-04-22T00:35:18.164Z,55.05
2019-04-22T00:35:55.226Z,56.28
2019-04-22T00:36:36.604Z,57.30
2019-04-22T00:37:13.288Z,55.63
2019-04-22T00:37:49.241Z,55.83
2019-04-22T00:38:25.094Z,55.63
2019-04-22T00:38:59.043Z,54.20
2019-04-22T00:39:39.751Z,54.85
2019-04-22T00:40:07.253Z,55.75
2019-04-22T00:40:46.155Z,54.77
2019-04-22T00:41:23.330Z,54.25
2019-04-22T00:41:56.961Z,54.10
2019-04-22T00:42:28.813Z,54.85
2019-04-22T00:43:10.083Z,56.02
2019-04-22T00:43:39.536Z,55.05
2019-04-22T00:44:18.864Z,54.63
2019-04-22T00:44:51.838Z,54.90
2019-04-22T00:45:31.140Z,55.48
2019-04-22T00:45:55.888Z,55.00
2019-04-22T00:46:43.194Z,54.42
2019-04-22T00:47:21.167Z,54.40
2019-04-22T00:48:05.934Z,55.10
2019-04-22T00:48:20.643Z,54.93
2019-04-22T00:49:18.730Z,54.63
2019-04-22T00:50:06.608Z,55.43
2019-04-22T00:50:49.627Z,54.05
2019-04-22T00:51:35.328Z,54.08
2019-04-22T00:52:01.901Z,54.60
2019-04-22T00:52:28.708Z,53.75
2019-04-22T00:53:03.866Z,53.63
2019-04-22T00:53:36.099Z,52.25
2019-04-22T00:54:08.684Z,53.35
2019-04-22T00:54:53.262Z,54.13
2019-04-22T00:56:35.634Z,53.33
2019-04-22T00:56:56.087Z,53.08
2019-04-22T00:57:35.513Z,54.18
2019-04-22T00:58:08.053Z,53.50
2019-04-22T00:58:46.717Z,54.45
2019-04-22T00:59:17.552Z,53.78
2019-04-22T00:59:58.261Z,52.75
2019-04-22T01:00:40.562Z,52.95
2019-04-22T01:01:17.365Z,53.52
2019-04-22T01:01:46.403Z,53.15
2019-04-22T01:02:24.540Z,52.55
2019-04-22T01:02:59.271Z,53.45
2019-04-22T01:03:34.191Z,53.00
2019-04-22T01:04:12.502Z,54.33
2019-04-22T01:05:21.997Z,53.90
2019-04-22T01:05:51.470Z,53.40
2019-04-22T01:06:27.074Z,54.60
2019-04-22T01:06:58.656Z,54.38
2019-04-22T01:07:35.586Z,53.38
2019-04-22T01:08:19.672Z,54.63
2019-04-22T01:08:53.658Z,53.45
2019-04-22T01:09:26.282Z,52.98
2019-04-22T01:09:58.942Z,53.33
2019-04-22T01:10:31.821Z,53.35
2019-04-22T01:11:11.280Z,53.20
2019-04-22T01:11:37.546Z,53.73
2019-04-22T01:12:24.715Z,53.78
2019-04-22T01:12:54.651Z,53.13
2019-04-22T01:13:24.919Z,53.48
2019-04-22T01:14:01.261Z,54.25
2019-04-22T01:14:35.296Z,53.33
2019-04-22T01:15:17.601Z,54.08
2019-04-22T01:15:47.570Z,53.58
2019-04-22T01:16:22.620Z,53.15
2019-04-22T01:17:32.971Z,53.68
2019-04-22T01:18:08.268Z,53.33
2019-04-22T01:18:45.705Z,51.88
2019-04-22T01:19:15.084Z,53.85
2019-04-22T01:19:58.526Z,52.98
2019-04-22T01:20:57.435Z,52.95
2019-04-22T01:21:17.763Z,52.80
2019-04-22T01:21:52.333Z,53.10
2019-04-22T01:22:17.768Z,54.15
2019-04-22T01:22:52.131Z,52.80
2019-04-22T01:23:23.817Z,53.30
2019-04-22T01:23:57.619Z,54.30
2019-04-22T01:24:32.787Z,53.30
2019-04-22T01:25:08.852Z,54.33
2019-04-22T01:25:47.159Z,53.25
2019-04-22T01:26:22.945Z,54.45
2019-04-22T01:26:58.206Z,53.78
2019-04-22T01:27:30.665Z,53.60
2019-04-22T01:28:06.420Z,52.93
2019-04-22T01:28:39.883Z,54.18
2019-04-22T01:29:14.938Z,54.48
2019-04-22T01:29:48.985Z,53.95
2019-04-22T01:30:24.148Z,54.60
2019-04-22T01:30:59.782Z,53.87
2019-04-22T01:31:30.615Z,53.73
2019-04-22T01:32:05.846Z,54.90
2019-04-22T01:32:41.863Z,54.18
2019-04-22T01:33:21.577Z,54.40
2019-04-22T01:34:04.347Z,54.63
2019-04-22T01:34:36.431Z,54.83
2019-04-22T01:35:14.324Z,55.35
2019-04-22T01:35:53.875Z,53.87
2019-04-22T01:36:28.822Z,55.03
2019-04-22T01:37:02.477Z,54.55
2019-04-22T01:37:36.187Z,53.70
2019-04-22T01:38:07.978Z,54.88
2019-04-22T01:38:56.401Z,53.90
2019-04-22T01:39:33.840Z,54.60
2019-04-22T01:40:06.095Z,54.63
2019-04-22T01:40:45.742Z,54.83
2019-04-22T01:41:21.221Z,54.70
2019-04-22T01:42:01.261Z,54.25
2019-04-22T01:42:28.610Z,54.10
2019-04-22T01:43:16.533Z,54.08
2019-04-22T01:43:40.989Z,54.40
2019-04-22T01:44:45.320Z,54.58
2019-04-22T01:45:25.839Z,53.95
2019-04-22T01:46:01.775Z,53.87
2019-04-22T01:46:42.497Z,53.63
2019-04-22T01:47:12.858Z,53.42
2019-04-22T01:47:43.682Z,53.40
2019-04-22T01:48:19.771Z,52.53
2019-04-22T01:48:57.817Z,52.78
2019-04-22T01:49:30.150Z,53.80
2019-04-22T01:50:10.203Z,53.13
2019-04-22T01:50:37.245Z,53.63
2019-04-22T01:51:05.756Z,53.80
2019-04-22T01:52:22.119Z,54.63
2019-04-22T01:53:13.414Z,53.70
2019-04-22T01:53:33.503Z,54.00
2019-04-22T01:54:16.620Z,53.68
2019-04-22T01:55:27.327Z,54.88
2019-04-22T01:55:49.758Z,54.27
2019-04-22T01:56:27.229Z,53.98
2019-04-22T01:57:03.671Z,54.50
2019-04-22T01:57:36.457Z,54.48
2019-04-22T01:58:11.103Z,54.40
2019-04-22T01:58:39.673Z,54.63
2019-04-22T01:59:15.617Z,54.55
2019-04-22T01:59:51.492Z,54.70
2019-04-22T02:00:36.037Z,54.15
2019-04-22T02:01:13.601Z,54.30
2019-04-22T02:01:49.980Z,54.77
2019-04-22T02:02:25.159Z,53.78
2019-04-22T02:02:59.764Z,54.55
2019-04-22T02:03:33.306Z,54.35
2019-04-22T02:04:14.380Z,53.92
2019-04-22T02:04:48.001Z,54.23
2019-04-22T02:05:17.699Z,53.98
2019-04-22T02:05:54.901Z,53.48
2019-04-22T02:06:30.337Z,55.10
2019-04-22T02:08:25.755Z,54.55
2019-04-22T02:08:53.305Z,53.95
2019-04-22T02:09:31.358Z,54.15
2019-04-22T02:09:55.188Z,53.92
2019-04-22T02:10:40.381Z,53.78
2019-04-22T02:11:07.821Z,54.15
2019-04-22T02:12:00.118Z,54.15
2019-04-22T02:12:19.370Z,53.92
2019-04-22T02:12:58.797Z,53.15
2019-04-22T02:13:32.987Z,53.83
2019-04-22T02:14:05.111Z,53.17
2019-04-22T02:14:39.926Z,53.87
2019-04-22T02:15:16.773Z,53.83
2019-04-22T02:15:53.369Z,55.15
2019-04-22T02:16:27.314Z,54.23
2019-04-22T02:17:06.774Z,53.25
2019-04-22T02:17:37.162Z,53.78
2019-04-22T02:18:18.058Z,54.08
2019-04-22T02:18:44.641Z,53.85
2019-04-22T02:19:29.095Z,55.03
2019-04-22T02:19:57.573Z,53.60
2019-04-22T02:20:31.353Z,53.68
2019-04-22T02:21:03.146Z,54.67
2019-04-22T02:21:42.772Z,53.60
2019-04-22T02:22:24.857Z,54.08
2019-04-22T02:23:40.382Z,53.83
2019-04-22T02:24:02.683Z,53.40
2019-04-22T02:24:35.263Z,53.87
2019-04-22T02:24:59.118Z,53.25
2019-04-22T02:25:45.956Z,53.30
2019-04-22T02:26:31.271Z,52.33
2019-04-22T02:27:06.265Z,52.30
2019-04-22T02:27:27.383Z,53.92
2019-04-22T02:27:54.652Z,53.42
2019-04-22T02:29:06.585Z,52.90
2019-04-22T02:30:22.505Z,53.40
2019-04-22T02:31:23.085Z,53.15
2019-04-22T02:33:11.443Z,53.52
2019-04-22T02:33:44.166Z,53.52
2019-04-22T02:34:11.348Z,52.73
2019-04-22T02:34:32.478Z,52.45
2019-04-22T02:35:59.911Z,52.73
2019-04-22T02:37:22.913Z,51.75
2019-04-22T02:38:14.036Z,52.48
2019-04-22T02:39:11.839Z,51.90
2019-04-22T02:39:47.191Z,52.55
2019-04-22T02:40:38.089Z,51.65
2019-04-22T02:42:35.144Z,52.58
2019-04-22T02:43:24.045Z,51.88
2019-04-22T02:43:59.581Z,51.70
2019-04-22T02:44:30.364Z,52.08
2019-04-22T02:44:57.993Z,52.62
2019-04-22T02:46:00.067Z,51.18
2019-04-22T02:47:04.503Z,51.92
2019-04-22T02:48:09.912Z,51.80
2019-04-22T02:49:49.406Z,51.00
2019-04-22T02:50:19.244Z,52.13
2019-04-22T02:51:06.090Z,51.85
2019-04-22T02:51:23.824Z,51.70
2019-04-22T02:52:14.529Z,52.25
2019-04-22T02:52:50.565Z,51.83
2019-04-22T02:53:36.504Z,52.33
2019-04-22T02:55:10.663Z,51.48
2019-04-22T02:55:40.890Z,51.85
2019-04-22T02:57:33.750Z,51.13
2019-04-22T02:57:57.399Z,51.55
2019-04-22T02:58:47.880Z,51.70
2019-04-22T02:59:54.804Z,51.92
2019-04-22T03:00:21.884Z,52.65
2019-04-22T03:01:07.764Z,52.15
2019-04-22T03:01:36.895Z,52.38
2019-04-22T03:02:06.794Z,52.17
2019-04-22T03:03:31.291Z,52.03
2019-04-22T03:04:24.604Z,51.95
2019-04-22T03:05:06.202Z,51.98
2019-04-22T03:06:30.413Z,51.45
2019-04-22T03:06:38.319Z,52.78
2019-04-22T03:07:16.480Z,52.03
2019-04-22T03:07:58.835Z,52.13
2019-04-22T03:08:30.222Z,51.70
2019-04-22T03:09:39.686Z,51.92
2019-04-22T03:10:20.439Z,52.90
2019-04-22T03:11:25.604Z,52.58
2019-04-22T03:12:11.568Z,52.85
2019-04-22T03:12:35.373Z,52.73
2019-04-22T03:13:25.266Z,52.80
2019-04-22T03:14:26.280Z,54.38
2019-04-22T03:14:56.321Z,54.10
2019-04-22T03:15:30.016Z,53.17
2019-04-22T03:16:57.816Z,53.33
2019-04-22T03:17:58.441Z,53.92
2019-04-22T03:19:30.831Z,52.80
2019-04-22T03:19:55.590Z,53.65
2019-04-22T03:20:11.088Z,53.58
2019-04-22T03:20:55.546Z,52.85
2019-04-22T03:21:24.206Z,54.03
2019-04-22T03:24:01.627Z,54.60
2019-04-22T03:25:14.068Z,54.60
2019-04-22T03:26:12.425Z,54.42
2019-04-22T03:27:16.381Z,56.00
2019-04-22T03:28:33.216Z,55.03
2019-04-22T03:30:45.336Z,54.88
2019-04-22T03:31:11.840Z,53.15
2019-04-22T03:32:53.788Z,53.90
2019-04-22T03:33:52.027Z,54.33
2019-04-22T03:35:36.830Z,54.58
2019-04-22T03:36:05.743Z,54.63
2019-04-22T03:37:04.565Z,54.05
2019-04-22T03:37:20.563Z,54.25
2019-04-22T03:38:20.166Z,55.20
2019-04-22T03:40:50.451Z,53.42
2019-04-22T03:41:32.357Z,52.40
2019-04-22T03:42:07.626Z,52.80
2019-04-22T03:42:52.500Z,53.25
2019-04-22T03:43:08.033Z,53.10
2019-04-22T03:44:27.052Z,54.18
2019-04-22T03:44:49.817Z,53.28
2019-04-22T03:45:46.501Z,53.13
2019-04-22T03:46:46.883Z,53.58
2019-04-22T03:47:17.596Z,53.40
2019-04-22T03:47:41.228Z,52.83
2019-04-22T03:49:03.883Z,54.75
2019-04-22T03:50:15.910Z,53.00
2019-04-22T03:50:42.879Z,53.05
2019-04-22T03:51:33.739Z,53.60
2019-04-22T03:52:03.004Z,53.30
2019-04-22T03:53:04.026Z,53.13
2019-04-22T03:53:38.733Z,53.10
2019-04-22T03:54:19.330Z,53.78
2019-04-22T03:54:53.769Z,53.42
2019-04-22T03:55:59.726Z,52.15
2019-04-22T03:58:05.549Z,53.50
2019-04-22T03:59:45.475Z,53.35
2019-04-22T03:59:58.751Z,54.25
2019-04-22T04:00:47.830Z,54.25
2019-04-22T04:01:18.749Z,53.68
2019-04-22T04:01:53.395Z,54.00
2019-04-22T04:02:28.839Z,54.58
2019-04-22T04:02:54.520Z,53.92
2019-04-22T04:03:57.689Z,54.10
2019-04-22T04:04:36.852Z,54.30
2019-04-22T04:05:29.534Z,54.00
2019-04-22T04:06:29.680Z,53.87
2019-04-22T04:08:54.716Z,54.10
2019-04-22T04:10:08.084Z,52.83
2019-04-22T04:11:01.174Z,54.65
2019-04-22T04:13:01.890Z,54.60
2019-04-22T04:13:33.869Z,53.48
2019-04-22T04:14:12.377Z,54.27
2019-04-22T04:14:50.831Z,53.85
2019-04-22T04:15:52.329Z,54.58
2019-04-22T04:16:30.340Z,53.87
2019-04-22T04:18:05.942Z,54.50
2019-04-22T04:19:36.720Z,54.45
2019-04-22T04:21:22.760Z,54.15
2019-04-22T04:21:57.996Z,54.67
2019-04-22T04:22:35.881Z,55.60
2019-04-22T04:23:01.666Z,54.27
2019-04-22T04:23:37.581Z,53.38
2019-04-22T04:24:25.846Z,54.75
2019-04-22T04:24:59.285Z,54.55
2019-04-22T04:26:02.366Z,55.12
2019-04-22T04:26:35.181Z,54.85
2019-04-22T04:28:43.844Z,55.45
2019-04-22T04:29:37.732Z,55.08
2019-04-22T04:30:11.217Z,54.23
2019-04-22T04:30:31.523Z,54.33
2019-04-22T04:31:21.865Z,55.88
2019-04-22T04:31:53.347Z,54.23
2019-04-22T04:32:38.707Z,55.28
2019-04-22T04:33:04.821Z,55.10
2019-04-22T04:33:35.956Z,55.48
2019-04-22T04:34:08.136Z,55.45
2019-04-22T04:35:25.381Z,55.03
2019-04-22T04:36:02.601Z,56.05
2019-04-22T04:36:30.642Z,55.20
2019-04-22T04:37:06.777Z,55.60
2019-04-22T04:37:46.896Z,55.58
2019-04-22T04:38:45.677Z,53.98
2019-04-22T04:39:18.749Z,55.17
2019-04-22T04:40:12.522Z,55.43
2019-04-22T04:41:10.858Z,55.78
2019-04-22T04:42:25.456Z,56.02
2019-04-22T04:44:04.414Z,56.08
2019-04-22T04:44:48.741Z,56.55
2019-04-22T04:45:26.561Z,56.70
2019-04-22T04:45:57.232Z,56.63
2019-04-22T04:46:27.157Z,57.20
2019-04-22T04:49:00.911Z,56.80
2019-04-22T04:49:37.335Z,59.25
2019-04-22T04:50:51.103Z,57.90
2019-04-22T04:52:45.128Z,60.75
2019-04-22T04:53:34.294Z,60.58
2019-04-22T04:54:24.257Z,61.77
2019-04-22T04:54:58.905Z,60.90
2019-04-22T04:55:53.143Z,61.73
2019-04-22T04:56:35.907Z,62.40
2019-04-22T04:59:16.372Z,62.03
2019-04-22T05:00:40.246Z,61.18
2019-04-22T05:01:23.191Z,62.13
2019-04-22T05:01:52.710Z,62.48
2019-04-22T05:02:30.871Z,61.83
2019-04-22T05:03:46.653Z,62.75
2019-04-22T05:04:14.335Z,61.33
2019-04-22T05:05:00.002Z,60.23
2019-04-22T05:05:35.319Z,61.85
2019-04-22T05:06:40.016Z,60.90
2019-04-22T05:07:56.046Z,61.05
2019-04-22T05:08:29.594Z,61.18
2019-04-22T05:10:09.864Z,61.37
2019-04-22T05:11:16.171Z,60.50
2019-04-22T05:12:42.313Z,60.78
2019-04-22T05:12:56.707Z,60.00
2019-04-22T05:13:39.457Z,61.55
2019-04-22T05:14:41.587Z,61.50
2019-04-22T05:16:13.437Z,61.35
2019-04-22T05:17:03.109Z,61.05
2019-04-22T05:18:14.373Z,59.33
2019-04-22T05:18:52.781Z,61.35
2019-04-22T05:19:23.959Z,61.48
2019-04-22T05:20:49.273Z,60.25
2019-04-22T05:21:40.207Z,60.55
2019-04-22T05:22:12.061Z,61.13
2019-04-22T05:23:31.998Z,58.95
2019-04-22T05:24:38.088Z,59.13
2019-04-22T05:25:15.044Z,58.75
2019-04-22T05:25:40.914Z,59.55
2019-04-22T05:26:57.453Z,58.55
2019-04-22T05:28:07.593Z,59.30
2019-04-22T05:28:35.023Z,58.90
2019-04-22T05:29:19.423Z,59.10
2019-04-22T05:30:26.770Z,59.63
2019-04-22T05:31:03.383Z,59.30
2019-04-22T05:31:37.552Z,60.55
2019-04-22T05:32:10.209Z,59.55
2019-04-22T05:32:44.663Z,60.70
2019-04-22T05:33:21.412Z,59.05
2019-04-22T05:33:56.447Z,60.48
2019-04-22T05:34:28.046Z,56.70
2019-04-22T05:35:06.798Z,58.73
2019-04-22T05:35:39.255Z,59.03
2019-04-22T05:36:15.788Z,58.38
2019-04-22T05:36:49.447Z,58.65
2019-04-22T05:37:27.646Z,58.80
2019-04-22T05:38:02.720Z,56.58
2019-04-22T05:38:40.294Z,58.60
2019-04-22T05:39:11.189Z,58.30
2019-04-22T05:39:42.474Z,57.83
2019-04-22T05:40:24.266Z,59.40
2019-04-22T05:40:56.448Z,58.25
2019-04-22T05:42:10.476Z,59.70
2019-04-22T05:42:39.433Z,58.52
2019-04-22T05:43:15.876Z,57.80
2019-04-22T05:43:50.188Z,58.95
2019-04-22T05:44:31.899Z,58.02
2019-04-22T05:45:03.052Z,57.75
2019-04-22T05:45:31.168Z,59.53
2019-04-22T05:46:09.168Z,58.83
2019-04-22T05:46:47.980Z,58.48
2019-04-22T05:47:26.167Z,58.17
2019-04-22T05:47:57.612Z,58.50
2019-04-22T05:48:38.066Z,58.13
2019-04-22T05:49:12.885Z,58.90
2019-04-22T05:49:41.620Z,57.75
2019-04-22T05:50:20.362Z,58.15
2019-04-22T05:50:57.947Z,58.10
2019-04-22T05:51:31.264Z,58.35
2019-04-22T05:52:04.716Z,59.13
2019-04-22T05:52:47.146Z,58.98
2019-04-22T05:53:26.736Z,58.90
2019-04-22T05:54:01.526Z,58.10
2019-04-22T05:54:36.100Z,58.15
2019-04-22T05:55:14.390Z,59.35
2019-04-22T05:55:48.891Z,58.78
2019-04-22T05:56:28.161Z,59.23
2019-04-22T05:56:42.851Z,58.10
2019-04-22T05:57:37.216Z,59.95
2019-04-22T05:58:02.498Z,59.33
2019-04-22T05:58:50.053Z,58.42
2019-04-22T05:59:22.784Z,57.38
2019-04-22T05:59:57.363Z,58.68
2019-04-22T06:00:36.891Z,59.85
2019-04-22T06:01:29.132Z,59.13
2019-04-22T06:01:59.724Z,59.50
2019-04-22T06:02:24.129Z,58.63
2019-04-22T06:02:52.929Z,59.50
2019-04-22T06:03:22.140Z,59.20
2019-04-22T06:04:36.856Z,58.10
2019-04-22T06:05:12.097Z,58.63
2019-04-22T06:06:05.581Z,59.90
2019-04-22T06:06:18.238Z,59.70
2019-04-22T06:06:57.141Z,60.15
2019-04-22T06:07:33.724Z,59.67
2019-04-22T06:08:03.931Z,59.15
2019-04-22T06:08:48.698Z,59.38
2019-04-22T06:10:03.027Z,59.93
2019-04-22T06:10:32.932Z,58.45
2019-04-22T06:11:08.128Z,60.28
2019-04-22T06:11:32.210Z,59.38
2019-04-22T06:12:12.237Z,59.38
2019-04-22T06:12:48.068Z,60.65
2019-04-22T06:13:23.602Z,58.55
2019-04-22T06:14:04.524Z,61.02
2019-04-22T06:14:44.587Z,59.35
2019-04-22T06:15:21.182Z,59.85
2019-04-22T06:15:52.904Z,59.88
2019-04-22T06:16:30.854Z,59.77
2019-04-22T06:17:12.374Z,60.23
2019-04-22T06:17:49.340Z,59.33
2019-04-22T06:18:22.588Z,60.55
2019-04-22T06:18:56.851Z,59.48
2019-04-22T06:19:31.532Z,59.98
2019-04-22T06:20:10.542Z,59.58
2019-04-22T06:20:56.921Z,60.80
2019-04-22T06:21:31.152Z,60.83
2019-04-22T06:21:56.024Z,61.48
2019-04-22T06:23:13.107Z,60.63
2019-04-22T06:23:52.365Z,58.78
2019-04-22T06:24:23.545Z,60.35
2019-04-22T06:24:55.392Z,59.08
2019-04-22T06:25:57.867Z,60.15
2019-04-22T06:27:21.833Z,60.65
2019-04-22T06:28:15.621Z,60.33
2019-04-22T06:28:38.357Z,60.20
2019-04-22T06:29:07.351Z,59.95
2019-04-22T06:29:31.219Z,59.75
2019-04-22T06:30:19.147Z,61.02
2019-04-22T06:30:48.748Z,61.15
2019-04-22T06:31:24.450Z,60.92
2019-04-22T06:32:17.462Z,60.03
2019-04-22T06:33:13.276Z,60.75
2019-04-22T06:33:40.499Z,59.88
2019-04-22T06:34:48.272Z,54.67
2019-04-22T06:35:37.932Z,56.75
2019-04-22T06:36:03.321Z,58.87
2019-04-22T06:38:11.041Z,58.73
2019-04-22T06:38:59.071Z,60.35
2019-04-22T06:39:34.213Z,60.43
2019-04-22T06:40:14.583Z,56.63
2019-04-22T06:40:46.762Z,58.00
2019-04-22T06:41:22.899Z,60.60
2019-04-22T06:41:58.896Z,57.70
2019-04-22T06:42:39.719Z,59.70
2019-04-22T06:43:10.316Z,57.60
2019-04-22T06:43:41.943Z,57.38
2019-04-22T06:44:29.560Z,59.53
2019-04-22T06:44:52.229Z,56.88
2019-04-22T06:45:24.117Z,58.20
2019-04-22T06:46:06.805Z,57.73
2019-04-22T06:46:42.728Z,58.38
2019-04-22T06:47:25.143Z,54.27
2019-04-22T06:47:59.119Z,59.88
2019-04-22T06:48:56.297Z,59.03
2019-04-22T06:49:31.837Z,58.33
2019-04-22T06:50:07.729Z,60.00
2019-04-22T06:50:43.332Z,58.28
2019-04-22T06:51:18.162Z,60.05
2019-04-22T06:51:55.569Z,60.85
2019-04-22T06:52:22.690Z,59.60
2019-04-22T06:53:06.795Z,57.25
2019-04-22T06:53:34.439Z,61.75
2019-04-22T06:54:07.260Z,60.45
2019-04-22T06:54:49.056Z,57.38
2019-04-22T06:55:22.382Z,59.53
2019-04-22T06:55:57.952Z,57.73
2019-04-22T06:56:27.436Z,56.20
2019-04-22T06:57:21.582Z,59.55
2019-04-22T06:57:41.660Z,58.65
2019-04-22T06:58:16.694Z,61.18
2019-04-22T06:59:06.914Z,58.55
2019-04-22T06:59:26.497Z,60.05
2019-04-22T07:00:05.544Z,59.65
2019-04-22T07:00:36.584Z,60.48
2019-04-22T07:01:19.325Z,59.83
2019-04-22T07:01:49.420Z,60.67
2019-04-22T07:02:24.050Z,59.48
2019-04-22T07:03:18.972Z,59.35
2019-04-22T07:04:03.293Z,57.62
2019-04-22T07:04:41.868Z,58.08
2019-04-22T07:05:32.855Z,60.43
2019-04-22T07:05:53.885Z,59.38
2019-04-22T07:07:08.171Z,60.38
2019-04-22T07:07:45.295Z,58.68
2019-04-22T07:08:39.106Z,59.53
2019-04-22T07:10:06.646Z,59.98
2019-04-22T07:10:45.097Z,59.98
2019-04-22T07:11:05.742Z,58.78
2019-04-22T07:11:52.848Z,59.55
2019-04-22T07:12:24.693Z,59.48
2019-04-22T07:12:58.398Z,58.23
2019-04-22T07:13:34.639Z,60.30
2019-04-22T07:14:07.173Z,59.08
2019-04-22T07:14:42.118Z,60.83
2019-04-22T07:15:35.798Z,60.70
2019-04-22T07:15:59.526Z,60.05
2019-04-22T07:16:32.368Z,60.10
2019-04-22T07:17:01.926Z,59.95
2019-04-22T07:17:45.858Z,60.63
2019-04-22T07:18:19.822Z,60.08
2019-04-22T07:18:51.353Z,58.70
2019-04-22T07:19:55.853Z,59.90
2019-04-22T07:20:41.631Z,60.10
2019-04-22T07:21:06.518Z,58.90
2019-04-22T07:21:44.868Z,59.77
2019-04-22T07:22:54.958Z,59.75
2019-04-22T07:23:33.331Z,59.55
2019-04-22T07:24:20.185Z,58.35
2019-04-22T07:25:31.855Z,58.33
2019-04-22T07:26:04.268Z,58.45
2019-04-22T07:26:29.100Z,58.90
2019-04-22T07:27:05.687Z,59.73
2019-04-22T07:27:34.675Z,57.67
2019-04-22T07:28:14.251Z,58.50
2019-04-22T07:28:44.858Z,58.48
2019-04-22T07:29:18.990Z,59.58
2019-04-22T07:30:01.998Z,58.83
2019-04-22T07:30:31.287Z,58.70
2019-04-22T07:31:18.384Z,57.78
2019-04-22T07:31:45.093Z,56.05
2019-04-22T07:32:32.168Z,56.75
2019-04-22T07:33:32.387Z,58.05
2019-04-22T07:34:08.227Z,58.75
2019-04-22T07:34:40.746Z,57.90
2019-04-22T07:35:23.892Z,57.35
2019-04-22T07:37:13.009Z,58.40
2019-04-22T07:38:22.218Z,57.78
2019-04-22T07:38:45.543Z,57.45
2019-04-22T07:39:23.735Z,58.35
2019-04-22T07:39:50.114Z,57.75
2019-04-22T07:40:37.503Z,58.00
2019-04-22T07:41:03.575Z,57.65
2019-04-22T07:42:20.346Z,58.33
2019-04-22T07:42:48.097Z,58.42
2019-04-22T07:43:40.883Z,58.23
2019-04-22T07:44:13.090Z,57.70
2019-04-22T07:44:38.701Z,58.08
2019-04-22T07:45:16.164Z,56.95
2019-04-22T07:45:49.280Z,57.70
2019-04-22T07:46:18.753Z,58.23
2019-04-22T07:47:10.087Z,57.77
2019-04-22T07:48:22.271Z,58.07
2019-04-22T07:48:59.932Z,57.75
2019-04-22T07:49:18.277Z,57.10
2019-04-22T07:49:50.801Z,57.98
2019-04-22T07:50:42.799Z,57.27
2019-04-22T07:51:40.222Z,57.60
2019-04-22T07:52:15.994Z,57.78
2019-04-22T07:52:49.090Z,56.63
2019-04-22T07:53:23.034Z,57.73
2019-04-22T07:53:55.846Z,57.67
2019-04-22T07:54:31.649Z,57.53
2019-04-22T07:55:04.306Z,57.48
2019-04-22T07:55:46.790Z,57.30
2019-04-22T07:56:19.060Z,57.73
2019-04-22T07:56:59.928Z,56.95
2019-04-22T07:58:05.153Z,57.43
2019-04-22T07:58:36.108Z,58.20
2019-04-22T07:59:18.697Z,57.90
2019-04-22T07:59:49.383Z,57.58
2019-04-22T08:00:27.631Z,58.38
2019-04-22T08:01:04.856Z,57.40
2019-04-22T08:01:30.507Z,57.58
2019-04-22T08:02:10.113Z,56.73
2019-04-22T08:04:17.667Z,57.60
2019-04-22T08:04:49.460Z,56.65
2019-04-22T08:05:18.926Z,56.35
2019-04-22T08:06:34.625Z,58.13
2019-04-22T08:06:52.311Z,57.17
2019-04-22T08:07:31.627Z,58.00
2019-04-22T08:08:10.978Z,57.80
2019-04-22T08:08:38.882Z,57.38
2019-04-22T08:09:18.164Z,57.08
2019-04-22T08:09:53.964Z,57.95
2019-04-22T08:10:57.959Z,57.20
2019-04-22T08:11:43.727Z,57.13
2019-04-22T08:12:26.777Z,57.70
2019-04-22T08:13:16.980Z,56.68
2019-04-22T08:13:46.631Z,56.40
2019-04-22T08:14:30.127Z,58.02
2019-04-22T08:14:59.469Z,56.85
2019-04-22T08:15:41.774Z,56.48
2019-04-22T08:16:10.728Z,55.40
2019-04-22T08:16:51.860Z,56.80
2019-04-22T08:17:50.885Z,57.20
2019-04-22T08:18:15.199Z,55.60
2019-04-22T08:19:09.105Z,57.60
2019-04-22T08:19:42.021Z,56.08
2019-04-22T08:20:15.597Z,56.77
2019-04-22T08:20:58.470Z,57.38
2019-04-22T08:21:23.889Z,56.55
2019-04-22T08:22:39.482Z,56.88
2019-04-22T08:23:16.366Z,57.67
2019-04-22T08:23:50.999Z,57.30
2019-04-22T08:24:22.782Z,56.23
2019-04-22T08:24:56.367Z,56.95
2019-04-22T08:25:36.754Z,57.13
2019-04-22T08:26:05.458Z,56.60
2019-04-22T08:26:51.335Z,56.58
2019-04-22T08:27:15.384Z,56.98
2019-04-22T08:27:53.636Z,56.77
2019-04-22T08:28:32.086Z,55.78
2019-04-22T08:29:12.341Z,56.53
2019-04-22T08:29:46.965Z,56.10
2019-04-22T08:31:28.269Z,56.68
2019-04-22T08:31:59.121Z,55.40
2019-04-22T08:33:15.853Z,55.35
2019-04-22T08:33:47.103Z,55.70
2019-04-22T08:34:23.342Z,55.92
2019-04-22T08:34:58.097Z,55.90
2019-04-22T08:35:40.778Z,56.70
2019-04-22T08:37:10.293Z,55.15
2019-04-22T08:37:41.901Z,55.95
2019-04-22T08:38:10.338Z,56.45
2019-04-22T08:38:50.457Z,55.17
2019-04-22T08:39:10.948Z,55.10
2019-04-22T08:39:36.775Z,55.75
2019-04-22T08:40:21.018Z,55.10
2019-04-22T08:41:30.237Z,55.63
2019-04-22T08:41:43.526Z,55.30
2019-04-22T08:42:47.366Z,55.33
2019-04-22T08:43:13.944Z,54.88
2019-04-22T08:43:48.318Z,55.43
2019-04-22T08:45:09.683Z,55.75
2019-04-22T08:45:31.857Z,55.65
2019-04-22T08:45:57.045Z,55.43
2019-04-22T08:46:48.927Z,55.33
2019-04-22T08:47:41.569Z,54.90
2019-04-22T08:48:18.615Z,55.23
2019-04-22T08:48:57.669Z,54.98
2019-04-22T08:49:39.501Z,52.95
2019-04-22T08:50:07.814Z,55.43
2019-04-22T08:50:42.039Z,54.55
2019-04-22T08:51:22.279Z,54.95
2019-04-22T08:51:49.339Z,54.67
2019-04-22T08:52:27.251Z,54.98
2019-04-22T08:53:02.052Z,53.95
2019-04-22T08:53:39.834Z,55.08
2019-04-22T08:54:12.152Z,54.73
2019-04-22T08:54:55.338Z,54.40
2019-04-22T08:55:26.248Z,54.83
2019-04-22T08:56:06.266Z,54.85
2019-04-22T08:57:10.774Z,53.98
2019-04-22T08:58:06.775Z,54.27
2019-04-22T08:58:57.330Z,53.25
2019-04-22T08:59:21.832Z,55.08
2019-04-22T09:00:02.904Z,54.35
2019-04-22T09:00:46.123Z,53.95
2019-04-22T09:01:17.472Z,54.33
2019-04-22T09:01:45.029Z,54.48
2019-04-22T09:02:25.798Z,54.10
2019-04-22T09:03:08.848Z,54.03
2019-04-22T09:03:40.111Z,53.78
2019-04-22T09:04:06.953Z,54.05
2019-04-22T09:04:48.950Z,54.45
2019-04-22T09:05:39.240Z,54.20
2019-04-22T09:06:06.121Z,52.95
2019-04-22T09:06:56.862Z,53.28
2019-04-22T09:07:46.602Z,53.58
2019-04-22T09:08:32.186Z,53.48
2019-04-22T09:09:00.932Z,53.87
2019-04-22T09:09:34.036Z,53.30
2019-04-22T09:10:10.363Z,54.48
2019-04-22T09:10:43.249Z,53.92
2019-04-22T09:11:20.059Z,54.03
2019-04-22T09:11:55.988Z,53.48
2019-04-22T09:12:49.159Z,53.85
2019-04-22T09:13:44.916Z,53.40
2019-04-22T09:14:15.974Z,54.03
2019-04-22T09:15:01.057Z,52.93
2019-04-22T09:15:26.622Z,54.13
2019-04-22T09:15:55.471Z,54.25
2019-04-22T09:16:41.413Z,53.28